createdAt,value
2017-12-30T00:00:23.335Z,9.63
2017-12-30T00:02:50.799Z,14.90
2017-12-30T00:05:18.279Z,9.60
2017-12-30T00:07:46.470Z,16.40
2017-12-30T00:10:13.925Z,15.07
2017-12-30T00:12:41.381Z,11.00
2017-12-30T00:15:08.930Z,13.33
2017-12-30T00:17:36.372Z,10.17
2017-12-30T00:20:04.584Z,16.20
2017-12-30T00:22:32.021Z,12.07
2017-12-30T00:24:59.479Z,9.60
2017-12-30T00:27:27.679Z,6.83
2017-12-30T00:29:55.139Z,11.57
2017-12-30T00:32:22.603Z,14.83
2017-12-30T00:34:50.054Z,10.37
2017-12-30T00:37:17.490Z,11.97
2017-12-30T00:39:44.942Z,11.33
2017-12-30T00:42:12.381Z,10.97
2017-12-30T00:44:39.861Z,13.83
2017-12-30T00:47:07.299Z,10.83
2017-12-30T00:49:34.756Z,11.80
2017-12-30T00:52:02.966Z,9.63
2017-12-30T00:54:30.420Z,12.70
2017-12-30T00:56:57.871Z,9.33
2017-12-30T00:59:25.319Z,9.30
2017-12-30T01:01:52.774Z,8.07
2017-12-30T01:04:20.247Z,13.13
2017-12-30T01:06:47.691Z,9.87
2017-12-30T01:09:15.137Z,14.33
2017-12-30T01:11:43.357Z,10.13
2017-12-30T01:14:10.884Z,6.27
2017-12-30T01:16:38.292Z,14.67
2017-12-30T01:19:05.748Z,14.37
2017-12-30T01:21:33.205Z,15.30
2017-12-30T01:24:00.660Z,10.47
2017-12-30T01:26:28.124Z,8.70
2017-12-30T01:28:55.575Z,11.30
2017-12-30T01:31:23.043Z,9.33
2017-12-30T01:33:50.496Z,9.37
2017-12-30T01:36:17.939Z,7.43
2017-12-30T01:38:46.142Z,6.30
2017-12-30T01:41:13.582Z,11.50
2017-12-30T01:43:41.875Z,14.33
2017-12-30T01:46:09.257Z,10.90
2017-12-30T01:48:36.703Z,8.87
2017-12-30T01:51:04.144Z,12.57
2017-12-30T01:53:32.349Z,8.93
2017-12-30T01:55:59.811Z,10.87
2017-12-30T01:58:27.279Z,11.50
2017-12-30T02:00:54.717Z,9.17
2017-12-30T02:03:22.930Z,9.97
2017-12-30T02:05:50.386Z,8.40
2017-12-30T02:08:17.856Z,7.87
2017-12-30T02:10:45.311Z,9.37
2017-12-30T02:13:12.750Z,12.43
2017-12-30T02:15:40.974Z,12.60
2017-12-30T02:18:08.436Z,11.50
2017-12-30T02:20:35.917Z,12.13
2017-12-30T02:25:38.082Z,13.63
2017-12-30T02:28:05.562Z,8.90
2017-12-30T02:30:32.989Z,10.30
2017-12-30T02:33:00.442Z,10.00
2017-12-30T02:35:27.902Z,10.10
2017-12-30T02:37:55.348Z,7.80
2017-12-30T02:40:23.559Z,11.67
2017-12-30T02:42:51.017Z,8.20
2017-12-30T02:45:18.459Z,12.53
2017-12-30T02:47:46.682Z,7.17
2017-12-30T02:50:14.130Z,8.17
2017-12-30T02:52:41.581Z,12.70
2017-12-30T02:55:09.036Z,10.47
2017-12-30T02:57:37.242Z,5.67
2017-12-30T03:00:04.695Z,8.50
2017-12-30T03:02:32.154Z,10.63
2017-12-30T03:04:59.618Z,7.03
2017-12-30T03:07:27.056Z,7.97
2017-12-30T03:09:55.270Z,11.70
2017-12-30T03:12:22.720Z,7.07
2017-12-30T03:14:50.171Z,9.67
2017-12-30T03:17:17.616Z,8.33
2017-12-30T03:19:45.054Z,7.93
2017-12-30T03:22:12.497Z,13.63
2017-12-30T03:24:39.934Z,8.30
2017-12-30T03:27:07.399Z,6.80
2017-12-30T03:29:34.839Z,8.57
2017-12-30T03:32:03.034Z,9.03
2017-12-30T03:34:30.465Z,8.97
2017-12-30T03:36:58.676Z,9.87
2017-12-30T03:39:26.139Z,5.87
2017-12-30T03:41:53.564Z,8.00
2017-12-30T03:44:21.042Z,6.23
2017-12-30T03:46:49.256Z,11.23
2017-12-30T03:49:16.677Z,7.00
2017-12-30T03:51:44.891Z,6.03
2017-12-30T03:54:12.353Z,7.80
2017-12-30T03:56:39.804Z,6.83
2017-12-30T03:59:07.245Z,11.27
2017-12-30T04:01:35.464Z,8.73
2017-12-30T04:04:02.902Z,8.10
2017-12-30T04:06:30.351Z,12.27
2017-12-30T04:08:58.577Z,5.47
2017-12-30T04:11:26.033Z,11.53
2017-12-30T04:13:53.491Z,7.53
2017-12-30T04:16:20.932Z,6.63
2017-12-30T04:18:48.365Z,7.27
2017-12-30T04:21:15.826Z,12.33
2017-12-30T04:23:43.272Z,9.17
2017-12-30T04:26:10.743Z,13.10
2017-12-30T04:28:38.180Z,7.93
2017-12-30T04:31:05.642Z,7.93
2017-12-30T04:33:33.385Z,5.97
2017-12-30T04:36:00.828Z,8.43
2017-12-30T04:38:29.034Z,5.27
2017-12-30T04:40:56.468Z,10.43
2017-12-30T04:43:24.686Z,10.57
2017-12-30T04:45:52.139Z,8.83
2017-12-30T04:48:19.578Z,7.50
2017-12-30T04:50:47.050Z,6.97
2017-12-30T04:53:14.508Z,5.63
2017-12-30T04:55:41.987Z,5.83
2017-12-30T04:58:09.755Z,7.57
2017-12-30T05:00:37.216Z,8.30
2017-12-30T05:03:04.667Z,10.50
2017-12-30T05:05:32.886Z,8.07
2017-12-30T05:08:00.335Z,7.90
2017-12-30T05:10:27.791Z,8.40
2017-12-30T05:12:55.295Z,7.80
2017-12-30T05:15:22.758Z,5.53
2017-12-30T05:17:50.201Z,7.23
2017-12-30T05:20:17.654Z,7.63
2017-12-30T05:22:45.095Z,7.00
2017-12-30T05:25:12.549Z,8.17
2017-12-30T05:27:39.997Z,8.67
2017-12-30T05:30:08.232Z,7.10
2017-12-30T05:32:35.697Z,7.10
2017-12-30T05:35:03.153Z,5.43
2017-12-30T05:37:30.617Z,6.60
2017-12-30T05:39:58.057Z,7.20
2017-12-30T05:42:25.514Z,7.37
2017-12-30T05:44:52.943Z,6.47
2017-12-30T05:47:21.160Z,7.70
2017-12-30T05:49:48.605Z,6.53
2017-12-30T05:52:16.050Z,7.30
2017-12-30T05:54:44.264Z,9.30
2017-12-30T05:57:11.733Z,8.40
2017-12-30T05:59:39.158Z,8.67
2017-12-30T06:02:07.366Z,8.77
2017-12-30T06:04:34.828Z,9.60
2017-12-30T06:07:02.274Z,6.37
2017-12-30T06:09:29.718Z,11.80
2017-12-30T06:11:57.942Z,9.03
2017-12-30T06:14:25.403Z,10.60
2017-12-30T06:16:52.858Z,11.73
2017-12-30T06:19:20.327Z,12.17
2017-12-30T06:21:47.821Z,9.10
2017-12-30T06:24:15.258Z,10.90
2017-12-30T06:26:42.713Z,9.33
2017-12-30T06:29:10.172Z,5.67
2017-12-30T06:31:37.623Z,7.37
2017-12-30T06:34:05.055Z,8.27
2017-12-30T06:36:32.508Z,9.10
2017-12-30T06:38:59.934Z,8.83
2017-12-30T06:41:27.382Z,6.07
2017-12-30T06:43:54.827Z,10.37
2017-12-30T06:46:23.032Z,12.10
2017-12-30T06:48:50.485Z,10.13
2017-12-30T06:51:17.959Z,6.27
2017-12-30T06:53:45.410Z,8.43
2017-12-30T06:56:12.858Z,7.93
2017-12-30T06:58:41.068Z,5.83
2017-12-30T07:01:08.518Z,9.10
2017-12-30T07:03:35.979Z,8.60
2017-12-30T07:06:03.422Z,7.33
2017-12-30T07:08:31.643Z,8.70
2017-12-30T07:10:59.106Z,8.40
2017-12-30T07:13:27.317Z,5.90
2017-12-30T07:15:54.758Z,6.90
2017-12-30T07:18:22.214Z,8.20
2017-12-30T07:20:49.662Z,10.50
2017-12-30T07:23:17.110Z,9.30
2017-12-30T07:25:44.563Z,6.13
2017-12-30T07:28:12.028Z,8.60
2017-12-30T07:30:39.460Z,7.83
2017-12-30T07:33:06.919Z,6.00
2017-12-30T07:35:34.367Z,8.10
2017-12-30T07:38:01.826Z,8.80
2017-12-30T07:40:29.270Z,5.50
2017-12-30T07:42:56.725Z,4.83
2017-12-30T07:45:24.178Z,8.60
2017-12-30T07:47:51.616Z,6.83
2017-12-30T07:50:19.847Z,6.20
2017-12-30T07:52:47.299Z,7.93
2017-12-30T07:55:14.742Z,5.27
2017-12-30T07:57:42.242Z,6.23
2017-12-30T08:00:09.668Z,4.53
2017-12-30T08:02:37.112Z,5.43
2017-12-30T08:05:04.566Z,4.53
2017-12-30T08:07:32.771Z,6.17
2017-12-30T08:10:00.231Z,4.50
2017-12-30T08:12:27.678Z,4.90
2017-12-30T08:14:55.895Z,4.23
2017-12-30T08:17:23.337Z,5.30
2017-12-30T08:19:50.780Z,5.27
2017-12-30T08:22:18.998Z,3.73
2017-12-30T08:24:46.430Z,3.60
2017-12-30T08:27:13.882Z,3.50
2017-12-30T08:29:42.886Z,7.30
2017-12-30T08:32:11.082Z,3.73
2017-12-30T08:34:38.552Z,5.73
2017-12-30T08:37:05.990Z,6.87
2017-12-30T08:39:33.438Z,4.53
2017-12-30T08:42:01.691Z,5.90
2017-12-30T08:44:29.910Z,2.80
2017-12-30T08:46:58.130Z,3.23
2017-12-30T08:49:25.572Z,3.40
2017-12-30T08:51:53.013Z,4.00
2017-12-30T08:54:21.248Z,3.53
2017-12-30T08:56:48.693Z,7.07
2017-12-30T08:59:16.190Z,3.73
2017-12-30T09:01:44.415Z,3.60
2017-12-30T09:04:11.869Z,2.60
2017-12-30T09:06:39.324Z,4.20
2017-12-30T09:09:07.558Z,3.50
2017-12-30T09:11:35.011Z,5.60
2017-12-30T09:14:02.444Z,6.80
2017-12-30T09:16:29.967Z,6.93
2017-12-30T09:18:57.442Z,11.03
2017-12-30T09:21:24.885Z,10.70
2017-12-30T09:23:52.472Z,11.97
2017-12-30T09:26:19.996Z,14.40
2017-12-30T09:28:50.149Z,13.93
2017-12-30T09:31:17.590Z,15.07
2017-12-30T09:33:45.974Z,16.43
2017-12-30T09:36:13.562Z,19.70
2017-12-30T09:38:41.822Z,21.90
2017-12-30T09:41:09.278Z,22.60
2017-12-30T09:43:36.741Z,22.80
2017-12-30T09:46:04.940Z,25.90
2017-12-30T09:48:32.383Z,30.63
2017-12-30T09:50:59.821Z,21.67
2017-12-30T09:53:27.277Z,24.57
2017-12-30T09:55:54.712Z,27.50
2017-12-30T09:58:22.936Z,29.30
2017-12-30T10:00:50.384Z,33.40
2017-12-30T10:03:17.833Z,33.33
2017-12-30T10:05:45.269Z,36.10
2017-12-30T10:08:13.484Z,35.87
2017-12-30T10:10:40.933Z,31.33
2017-12-30T10:13:09.151Z,46.97
2017-12-30T10:15:37.371Z,36.83
2017-12-30T10:18:04.807Z,44.37
2017-12-30T10:20:32.258Z,44.67
2017-12-30T10:22:59.710Z,39.90
2017-12-30T10:25:27.169Z,41.90
2017-12-30T10:27:54.634Z,42.57
2017-12-30T10:30:22.115Z,50.50
2017-12-30T10:32:49.648Z,45.60
2017-12-30T10:35:17.096Z,43.23
2017-12-30T10:37:44.610Z,34.90
2017-12-30T10:40:12.856Z,42.40
2017-12-30T10:42:40.332Z,42.23
2017-12-30T10:45:07.788Z,46.33
2017-12-30T10:47:35.229Z,51.03
2017-12-30T10:50:02.688Z,43.23
2017-12-30T10:52:30.916Z,36.67
2017-12-30T10:54:59.134Z,49.40
2017-12-30T10:57:27.349Z,51.57
2017-12-30T10:59:54.817Z,49.10
2017-12-30T11:02:22.292Z,52.80
2017-12-30T11:04:49.740Z,38.67
2017-12-30T11:07:17.196Z,42.33
2017-12-30T11:09:44.651Z,43.73
2017-12-30T11:12:12.120Z,48.57
2017-12-30T11:14:39.570Z,46.80
2017-12-30T11:17:07.023Z,45.27
2017-12-30T11:19:35.269Z,45.90
2017-12-30T11:22:02.712Z,46.40
2017-12-30T11:24:30.180Z,40.27
2017-12-30T11:26:57.617Z,40.50
2017-12-30T11:29:25.076Z,41.07
2017-12-30T11:31:52.544Z,44.00
2017-12-30T11:34:20.012Z,42.10
2017-12-30T11:36:47.450Z,49.83
2017-12-30T11:39:14.914Z,49.43
2017-12-30T11:41:42.371Z,44.07
2017-12-30T11:44:10.582Z,47.70
2017-12-30T11:46:38.043Z,46.13
2017-12-30T11:49:05.494Z,54.00
2017-12-30T11:51:33.140Z,35.10
2017-12-30T11:54:01.362Z,42.60
2017-12-30T11:56:28.815Z,45.83
2017-12-30T11:58:56.270Z,58.30
2017-12-30T12:01:23.738Z,43.50
2017-12-30T12:03:51.197Z,40.00
2017-12-30T12:06:18.657Z,41.43
2017-12-30T12:08:46.115Z,39.70
2017-12-30T12:11:13.568Z,52.57
2017-12-30T12:13:41.016Z,43.30
2017-12-30T12:16:09.233Z,41.10
2017-12-30T12:18:36.696Z,36.73
2017-12-30T12:21:04.151Z,41.27
2017-12-30T12:23:31.611Z,49.93
2017-12-30T12:25:59.078Z,42.43
2017-12-30T12:28:26.517Z,33.73
2017-12-30T12:30:54.022Z,42.47
2017-12-30T12:33:22.235Z,43.97
2017-12-30T12:35:49.686Z,49.63
2017-12-30T12:38:17.130Z,39.37
2017-12-30T12:40:44.582Z,37.40
2017-12-30T12:43:12.043Z,37.93
2017-12-30T12:45:39.492Z,36.53
2017-12-30T12:48:06.955Z,49.37
2017-12-30T12:50:34.444Z,47.33
2017-12-30T12:53:01.913Z,35.60
2017-12-30T12:55:30.134Z,41.90
2017-12-30T12:57:58.364Z,42.93
2017-12-30T13:00:25.853Z,41.37
2017-12-30T13:02:53.303Z,41.50
2017-12-30T13:05:20.747Z,42.10
2017-12-30T13:07:48.191Z,35.67
2017-12-30T13:10:15.650Z,35.90
2017-12-30T13:12:43.094Z,42.50
2017-12-30T13:15:11.328Z,44.37
2017-12-30T13:17:38.802Z,38.13
2017-12-30T13:20:06.259Z,31.57
2017-12-30T13:22:33.727Z,35.90
2017-12-30T13:25:01.191Z,40.80
2017-12-30T13:27:28.634Z,38.83
2017-12-30T13:29:56.108Z,37.90
2017-12-30T13:32:23.551Z,39.43
2017-12-30T13:34:51.021Z,47.57
2017-12-30T13:37:18.484Z,35.43
2017-12-30T13:39:45.935Z,33.20
2017-12-30T13:42:13.395Z,31.47
2017-12-30T13:44:40.860Z,35.33
2017-12-30T13:47:08.322Z,37.13
2017-12-30T13:49:35.779Z,32.60
2017-12-30T13:52:03.231Z,26.50
2017-12-30T13:54:30.681Z,39.50
2017-12-30T13:56:58.141Z,31.30
2017-12-30T13:59:25.605Z,32.43
2017-12-30T14:01:53.831Z,25.10
2017-12-30T14:04:21.261Z,31.90
2017-12-30T14:06:48.734Z,38.28
2017-12-30T14:09:16.168Z,39.53
2017-12-30T14:11:44.406Z,27.03
2017-12-30T14:14:11.850Z,38.33
2017-12-30T14:16:39.293Z,28.53
2017-12-30T14:19:06.751Z,27.90
2017-12-30T14:21:34.218Z,29.73
2017-12-30T14:24:01.673Z,26.67
2017-12-30T14:26:29.165Z,25.90
2017-12-30T14:28:56.636Z,35.73
2017-12-30T14:31:24.101Z,22.50
2017-12-30T14:33:51.551Z,34.23
2017-12-30T14:36:19.024Z,32.37
2017-12-30T14:38:46.485Z,29.23
2017-12-30T14:41:13.922Z,34.00
2017-12-30T14:43:41.376Z,28.80
2017-12-30T14:46:08.849Z,25.83
2017-12-30T14:48:36.286Z,30.50
2017-12-30T14:51:04.515Z,28.50
2017-12-30T14:53:31.951Z,26.17
2017-12-30T14:55:59.420Z,28.53
2017-12-30T14:58:26.872Z,34.70
2017-12-30T15:00:54.316Z,23.30
2017-12-30T15:03:22.529Z,29.57
2017-12-30T15:05:49.998Z,27.33
2017-12-30T15:08:17.545Z,25.07
2017-12-30T15:10:44.971Z,30.90
2017-12-30T15:13:13.206Z,33.20
2017-12-30T15:15:40.653Z,32.33
2017-12-30T15:18:08.111Z,33.93
2017-12-30T15:20:35.545Z,26.60
2017-12-30T15:23:03.756Z,24.80
2017-12-30T15:25:31.216Z,31.37
2017-12-30T15:27:58.666Z,29.00
2017-12-30T15:30:26.100Z,32.40
2017-12-30T15:32:53.575Z,29.17
2017-12-30T15:35:21.785Z,27.63
2017-12-30T15:38:06.900Z,37.90
2017-12-30T15:40:34.329Z,27.60
2017-12-30T15:43:01.776Z,27.00
2017-12-30T15:45:29.650Z,21.93
2017-12-30T15:47:57.090Z,23.03
2017-12-30T15:50:24.534Z,34.27
2017-12-30T15:52:52.766Z,34.00
2017-12-30T15:55:20.210Z,27.30
2017-12-30T15:57:47.646Z,37.53
2017-12-30T16:00:15.883Z,30.80
2017-12-30T16:02:43.327Z,30.43
2017-12-30T16:05:10.780Z,22.83
2017-12-30T16:07:38.222Z,24.17
2017-12-30T16:10:06.443Z,35.97
2017-12-30T16:12:33.898Z,32.70
2017-12-30T16:15:01.358Z,35.30
2017-12-30T16:17:28.807Z,34.57
2017-12-30T16:19:56.269Z,33.40
2017-12-30T16:22:23.709Z,36.87
2017-12-30T16:24:51.937Z,38.07
2017-12-30T16:27:19.390Z,33.50
2017-12-30T16:29:46.838Z,35.73
2017-12-30T16:32:14.278Z,36.03
2017-12-30T16:34:42.508Z,41.30
2017-12-30T16:37:09.989Z,34.83
2017-12-30T16:39:37.425Z,36.97
2017-12-30T16:42:04.870Z,33.30
2017-12-30T16:44:32.307Z,30.60
2017-12-30T16:47:00.526Z,29.90
2017-12-30T16:49:27.991Z,36.27
2017-12-30T16:51:55.461Z,31.67
2017-12-30T16:54:22.912Z,30.33
2017-12-30T16:56:50.356Z,32.70
2017-12-30T16:59:17.821Z,30.70
2017-12-30T17:01:45.266Z,34.07
2017-12-30T17:04:12.707Z,29.80
2017-12-30T17:06:40.172Z,37.17
2017-12-30T17:09:07.629Z,36.97
2017-12-30T17:11:35.061Z,33.83
2017-12-30T17:14:02.514Z,33.43
2017-12-30T17:16:30.060Z,34.40
2017-12-30T17:18:57.503Z,29.83
2017-12-30T17:21:25.714Z,30.50
2017-12-30T17:23:53.163Z,33.23
2017-12-30T17:26:20.622Z,30.07
2017-12-30T17:28:48.079Z,35.80
2017-12-30T17:31:15.534Z,31.90
2017-12-30T17:33:43.749Z,37.63
2017-12-30T17:36:28.792Z,36.13
2017-12-30T17:39:13.903Z,40.10
2017-12-30T17:41:59.075Z,35.53
2017-12-30T17:44:26.530Z,32.27
2017-12-30T17:46:54.734Z,29.67
2017-12-30T17:49:22.959Z,43.87
2017-12-30T17:51:50.417Z,37.87
2017-12-30T17:54:17.857Z,32.07
2017-12-30T17:56:45.372Z,36.00
2017-12-30T17:59:13.526Z,40.87
2017-12-30T18:01:40.973Z,29.67
2017-12-30T18:04:08.441Z,34.33
2017-12-30T18:06:35.922Z,33.40
2017-12-30T18:09:03.380Z,30.10
2017-12-30T18:11:30.835Z,34.80
2017-12-30T18:13:58.294Z,29.47
2017-12-30T18:16:25.767Z,31.30
2017-12-30T18:18:53.206Z,29.07
2017-12-30T18:21:20.637Z,34.23
2017-12-30T18:23:48.102Z,30.73
2017-12-30T18:26:15.539Z,28.37
2017-12-30T18:28:42.978Z,34.80
2017-12-30T18:31:10.417Z,34.17
2017-12-30T18:33:37.861Z,41.50
2017-12-30T18:36:06.937Z,28.60
2017-12-30T18:38:34.387Z,34.40
2017-12-30T18:41:01.843Z,32.17
2017-12-30T18:43:29.303Z,32.10
2017-12-30T18:45:56.778Z,26.17
2017-12-30T18:48:24.200Z,34.50
2017-12-30T18:50:51.656Z,33.53
2017-12-30T18:53:19.862Z,28.30
2017-12-30T18:55:47.323Z,26.70
2017-12-30T18:58:14.767Z,33.10
2017-12-30T19:00:42.219Z,31.80
2017-12-30T19:03:09.678Z,30.87
2017-12-30T19:05:37.122Z,32.57
2017-12-30T19:08:05.338Z,34.63
2017-12-30T19:10:32.784Z,34.13
2017-12-30T19:13:00.996Z,29.40
2017-12-30T19:15:28.447Z,29.40
2017-12-30T19:17:55.903Z,27.53
2017-12-30T19:20:23.367Z,31.97
2017-12-30T19:22:50.839Z,27.97
2017-12-30T19:25:18.265Z,30.57
2017-12-30T19:27:46.528Z,38.43
2017-12-30T19:30:13.994Z,27.83
2017-12-30T19:32:41.435Z,35.60
2017-12-30T19:35:08.886Z,30.77
2017-12-30T19:37:36.346Z,28.67
2017-12-30T19:40:03.787Z,30.20
2017-12-30T19:42:31.218Z,21.67
2017-12-30T19:44:59.457Z,30.53
2017-12-30T19:47:26.898Z,34.10
2017-12-30T19:49:54.360Z,28.53
2017-12-30T19:52:21.814Z,25.53
2017-12-30T19:54:49.280Z,23.67
2017-12-30T19:57:17.044Z,30.63
2017-12-30T19:59:44.496Z,29.17
2017-12-30T20:02:11.954Z,26.27
2017-12-30T20:04:39.406Z,32.30
2017-12-30T20:07:07.654Z,31.80
2017-12-30T20:09:35.111Z,23.37
2017-12-30T20:12:02.576Z,25.10
2017-12-30T20:14:30.064Z,27.30
2017-12-30T20:16:57.501Z,25.97
2017-12-30T20:19:24.957Z,33.43
2017-12-30T20:21:52.443Z,27.97
2017-12-30T20:24:19.877Z,35.63
2017-12-30T20:26:47.339Z,28.37
2017-12-30T20:29:15.571Z,31.07
2017-12-30T20:31:43.787Z,32.97
2017-12-30T20:34:11.263Z,29.80
2017-12-30T20:36:38.717Z,35.00
2017-12-30T20:39:06.171Z,37.87
2017-12-30T20:41:33.632Z,32.23
2017-12-30T20:44:01.107Z,30.47
2017-12-30T20:46:28.576Z,27.27
2017-12-30T20:48:56.042Z,32.23
2017-12-30T20:51:23.517Z,35.30
2017-12-30T20:53:51.010Z,28.63
2017-12-30T20:58:53.122Z,31.33
2017-12-30T21:01:20.592Z,28.20
2017-12-30T21:03:48.041Z,28.83
2017-12-30T21:06:15.490Z,29.73
2017-12-30T21:08:43.710Z,35.17
2017-12-30T21:11:11.174Z,33.83
2017-12-30T21:13:38.624Z,22.67
2017-12-30T21:16:06.091Z,48.23
2017-12-30T21:18:33.564Z,29.97
2017-12-30T21:21:01.014Z,32.20
2017-12-30T21:23:28.459Z,29.63
2017-12-30T21:25:55.925Z,37.13
2017-12-30T21:28:23.384Z,28.10
2017-12-30T21:30:50.868Z,44.30
2017-12-30T21:33:18.328Z,28.07
2017-12-30T21:35:45.761Z,29.57
2017-12-30T21:38:14.005Z,28.97
2017-12-30T21:40:41.488Z,36.87
2017-12-30T21:43:08.930Z,27.93
2017-12-30T21:45:36.415Z,27.60
2017-12-30T21:48:03.858Z,28.50
2017-12-30T21:50:31.316Z,32.73
2017-12-30T21:52:58.768Z,28.37
2017-12-30T21:55:26.250Z,29.77
2017-12-30T21:57:53.701Z,30.57
2017-12-30T22:00:21.169Z,31.30
2017-12-30T22:02:48.605Z,32.77
2017-12-30T22:05:16.064Z,30.53
2017-12-30T22:07:43.501Z,30.47
2017-12-30T22:10:10.970Z,31.10
2017-12-30T22:12:38.409Z,31.00
2017-12-30T22:15:06.644Z,32.73
2017-12-30T22:17:34.088Z,25.27
2017-12-30T22:20:01.546Z,34.03
2017-12-30T22:22:28.976Z,31.67
2017-12-30T22:24:57.173Z,33.67
2017-12-30T22:29:58.667Z,28.87
2017-12-30T22:32:26.124Z,28.77
2017-12-30T22:34:53.579Z,33.10
2017-12-30T22:37:21.027Z,27.43
2017-12-30T22:39:49.240Z,36.60
2017-12-30T22:42:16.677Z,34.07
2017-12-30T22:44:44.118Z,25.63
2017-12-30T22:47:11.568Z,35.83
2017-12-30T22:49:39.009Z,28.13
2017-12-30T22:52:06.463Z,27.43
2017-12-30T22:54:33.906Z,34.50
2017-12-30T22:57:01.398Z,28.17
2017-12-30T22:59:29.620Z,26.90
2017-12-30T23:01:57.068Z,26.17
2017-12-30T23:04:24.506Z,33.43
2017-12-30T23:06:51.971Z,27.67
2017-12-30T23:09:19.460Z,27.43
2017-12-30T23:11:46.916Z,29.63
2017-12-30T23:14:14.374Z,28.67
2017-12-30T23:16:41.842Z,30.83
2017-12-30T23:19:09.298Z,29.97
2017-12-30T23:21:36.761Z,25.67
2017-12-30T23:24:04.207Z,34.63
2017-12-30T23:26:31.652Z,33.30
2017-12-30T23:28:59.104Z,29.33
2017-12-30T23:31:26.571Z,25.73
2017-12-30T23:33:54.029Z,25.40
2017-12-30T23:36:21.459Z,35.47
2017-12-30T23:38:49.679Z,29.77
2017-12-30T23:41:17.126Z,28.03
2017-12-30T23:43:44.590Z,22.60
2017-12-30T23:46:12.060Z,25.43
2017-12-30T23:48:39.827Z,25.27
2017-12-30T23:51:07.274Z,32.07
2017-12-30T23:53:34.723Z,28.60
2017-12-30T23:56:02.960Z,25.43
2017-12-30T23:58:30.414Z,23.30
